Time;durP1;ratioP1;P1;durP2;ratioP2;P2;SDS_P1;SDS_P2;PMS_P1;PMS_P2;Temp;Humidity;BMP_temperature;BMP_pressure;BME280_temperature;BME280_humidity;BME280_pressure;Samples;Min_cycle;Max_cycle;Signal;HPM_P1;HPM_P2
2023/01/30 00:01:04;;;;;;;1.80;1.70;;;19.50;31.70;;;;;;4967474;28;20236;-64
2023/01/30 00:03:30;;;;;;;2.00;1.90;;;19.50;31.70;;;;;;4971286;28;20639;-64
2023/01/30 00:05:56;;;;;;;2.40;2.30;;;19.50;31.80;;;;;;4968054;28;20433;-64
2023/01/30 00:08:21;;;;;;;2.20;2.10;;;19.50;31.80;;;;;;4970419;28;20236;-64
2023/01/30 00:10:47;;;;;;;2.20;2.00;;;19.50;31.80;;;;;;4971287;28;20731;-64
2023/01/30 00:13:14;;;;;;;2.27;2.17;;;19.50;32.60;;;;;;4968285;28;20224;-64
2023/01/30 00:15:40;;;;;;;2.13;2.03;;;19.50;31.70;;;;;;4972675;28;20239;-64
2023/01/30 00:18:06;;;;;;;2.13;2.03;;;19.50;31.80;;;;;;4970369;28;20473;-64
2023/01/30 00:20:32;;;;;;;2.30;2.10;;;19.50;31.70;;;;;;4969944;28;20532;-64
2023/01/30 00:22:57;;;;;;;2.17;2.07;;;19.50;31.80;;;;;;4969092;28;20237;-64
2023/01/30 00:25:24;;;;;;;2.33;2.23;;;19.50;31.80;;;;;;4968929;28;20322;-62
2023/01/30 00:27:50;;;;;;;2.17;2.07;;;19.50;31.80;;;;;;4965893;28;20224;-64
2023/01/30 00:30:15;;;;;;;2.00;1.90;;;19.50;32.60;;;;;;4970459;28;20866;-64
2023/01/30 00:32:41;;;;;;;2.50;2.30;;;19.50;31.80;;;;;;4968290;28;20248;-64
2023/01/30 00:35:07;;;;;;;2.10;2.00;;;19.50;31.70;;;;;;4969344;28;20324;-64
2023/01/30 00:37:32;;;;;;;2.03;1.83;;;19.50;31.80;;;;;;4967651;28;23501;-64
2023/01/30 00:39:58;;;;;;;3.67;2.00;;;19.50;31.70;;;;;;4968068;28;20247;-64
2023/01/30 00:47:56;;;;;;;1.90;1.80;;;19.50;31.80;;;;;;4967887;28;20467;-66
2023/01/30 00:50:21;;;;;;;2.10;2.00;;;19.50;31.80;;;;;;4970973;28;20458;-67
2023/01/30 00:52:47;;;;;;;2.00;1.90;;;19.50;31.80;;;;;;4965705;28;20453;-66
2023/01/30 00:55:14;;;;;;;2.17;2.07;;;19.50;31.80;;;;;;4967968;28;20342;-67
2023/01/30 00:57:40;;;;;;;1.80;1.70;;;19.50;31.80;;;;;;4957798;28;20271;-67
2023/01/30 01:00:08;;;;;;;2.20;2.10;;;19.50;31.80;;;;;;4956680;28;20916;-67
2023/01/30 01:02:34;;;;;;;1.90;1.80;;;19.50;31.80;;;;;;4960303;28;20263;-67
2023/01/30 01:05:00;;;;;;;2.23;2.13;;;19.50;31.80;;;;;;4969061;28;20454;-67
2023/01/30 01:07:25;;;;;;;1.83;1.73;;;19.50;31.90;;;;;;4967300;28;20508;-66
2023/01/30 01:09:51;;;;;;;1.80;1.70;;;19.50;31.80;;;;;;4972908;28;20373;-67
2023/01/30 01:12:16;;;;;;;2.27;2.17;;;19.50;31.80;;;;;;4950370;28;20232;-67
2023/01/30 01:14:42;;;;;;;2.03;1.93;;;19.50;31.80;;;;;;4973072;28;20236;-67
2023/01/30 01:17:07;;;;;;;2.20;2.07;;;19.50;31.80;;;;;;4965543;28;20225;-67
2023/01/30 01:19:33;;;;;;;2.10;1.73;;;19.50;31.80;;;;;;4967483;28;20220;-66
2023/01/30 01:21:59;;;;;;;2.10;2.00;;;19.50;31.90;;;;;;4967284;28;20237;-66
2023/01/30 01:24:24;;;;;;;2.20;2.10;;;19.50;31.80;;;;;;4970950;28;20478;-66
2023/01/30 01:26:50;;;;;;;2.27;2.10;;;19.50;31.90;;;;;;4965019;28;21011;-66
2023/01/30 01:29:16;;;;;;;1.90;1.80;;;19.50;31.90;;;;;;4953341;28;20224;-66
2023/01/30 01:31:42;;;;;;;2.13;2.03;;;19.50;31.80;;;;;;4958250;28;20227;-66
2023/01/30 01:34:08;;;;;;;2.00;1.90;;;19.50;31.90;;;;;;4969711;28;20336;-65
2023/01/30 01:36:34;;;;;;;1.90;1.80;;;19.50;31.80;;;;;;4965709;28;20842;-66
2023/01/30 01:39:00;;;;;;;1.77;1.67;;;19.50;31.90;;;;;;4971268;28;20504;-66
2023/01/30 01:41:25;;;;;;;2.03;1.93;;;19.50;31.80;;;;;;4964652;28;20307;-65
2023/01/30 01:44:07;;;;;;;2.00;1.90;;;19.50;31.90;;;;;;4971370;28;20240;-66
2023/01/30 01:46:32;;;;;;;2.47;2.27;;;19.50;31.80;;;;;;4961778;28;20884;-66
2023/01/30 01:49:01;;;;;;;2.30;2.20;;;19.50;31.90;;;;;;4969540;28;20491;-66
2023/01/30 01:52:05;;;;;;;2.13;2.03;;;19.50;31.80;;;;;;4962579;28;20231;-66
2023/01/30 01:54:51;;;;;;;2.10;2.00;;;19.50;31.80;;;;;;4963246;28;20433;-66
2023/01/30 01:57:25;;;;;;;2.00;1.90;;;19.50;32.00;;;;;;4963401;28;20485;-66
2023/01/30 02:00:14;;;;;;;2.13;1.93;;;19.50;31.90;;;;;;4957832;28;20547;-67
2023/01/30 02:03:05;;;;;;;1.80;1.70;;;19.50;31.90;;;;;;4965224;28;20713;-67
2023/01/30 02:05:34;;;;;;;2.40;2.30;;;19.50;32.00;;;;;;4954312;28;20484;-66
2023/01/30 02:08:08;;;;;;;1.90;1.80;;;19.50;31.90;;;;;;4961590;28;20553;-66
2023/01/30 02:10:52;;;;;;;2.00;1.90;;;19.50;31.90;;;;;;4964909;28;20454;-66
2023/01/30 02:13:19;;;;;;;1.90;1.70;;;19.50;31.90;;;;;;4966487;28;20477;-67
2023/01/30 02:15:44;;;;;;;2.67;1.90;;;19.50;31.90;;;;;;4948846;28;20443;-67
2023/01/30 02:18:11;;;;;;;2.20;2.10;;;19.50;31.90;;;;;;4945217;28;21305;-67
2023/01/30 02:20:48;;;;;;;2.10;2.00;;;19.50;32.70;;;;;;4963653;28;20251;-67
2023/01/30 02:23:33;;;;;;;1.80;1.70;;;19.50;31.90;;;;;;4964541;28;21176;-67
2023/01/30 02:26:14;;;;;;;1.73;1.63;;;19.50;31.90;;;;;;4968893;28;20477;-64
2023/01/30 02:29:13;;;;;;;4.20;2.27;;;19.50;31.90;;;;;;4970338;28;21023;-64
2023/01/30 02:31:41;;;;;;;1.90;1.80;;;19.50;31.90;;;;;;4948212;28;20466;-64
2023/01/30 02:34:41;;;;;;;1.97;1.87;;;19.50;31.90;;;;;;4970058;28;21150;-64
2023/01/30 02:37:07;;;;;;;1.87;1.77;;;19.50;31.90;;;;;;4961017;28;20865;-64
2023/01/30 02:40:04;;;;;;;2.10;2.00;;;19.40;31.80;;;;;;4972281;28;21046;-64
2023/01/30 02:42:36;;;;;;;2.80;1.97;;;19.40;31.80;;;;;;4947329;28;20667;-64
2023/01/30 02:45:25;;;;;;;1.93;1.83;;;19.40;31.80;;;;;;4969919;28;21061;-64
2023/01/30 02:48:01;;;;;;;1.80;1.70;;;19.40;31.90;;;;;;4967653;28;20435;-64
2023/01/30 02:50:39;;;;;;;2.27;1.90;;;19.40;31.90;;;;;;4966605;28;20456;-64
2023/01/30 02:53:05;;;;;;;1.80;1.70;;;19.40;31.90;;;;;;4970040;28;20520;-64
2023/01/30 02:55:31;;;;;;;1.80;1.70;;;19.40;31.80;;;;;;4969034;28;20815;-64
2023/01/30 02:57:57;;;;;;;1.93;1.83;;;19.40;31.90;;;;;;4969933;28;20473;-63
2023/01/30 03:00:28;;;;;;;1.90;1.80;;;19.40;31.80;;;;;;4969637;28;20220;-64
2023/01/30 03:03:26;;;;;;;2.00;1.90;;;19.50;31.90;;;;;;4968108;28;20263;-64
2023/01/30 03:06:24;;;;;;;1.80;1.70;;;19.40;31.90;;;;;;4954990;28;20476;-64
2023/01/30 03:09:17;;;;;;;1.90;1.80;;;19.40;31.80;;;;;;4965217;28;21040;-64
2023/01/30 03:12:05;;;;;;;2.30;2.10;;;19.40;31.80;;;;;;4962605;28;20681;-64
2023/01/30 03:14:46;;;;;;;1.87;1.77;;;19.40;32.00;;;;;;4972075;28;20465;-64
2023/01/30 03:17:13;;;;;;;1.70;1.60;;;19.40;31.90;;;;;;4966938;28;20548;-64
2023/01/30 03:19:39;;;;;;;1.90;1.80;;;19.40;31.90;;;;;;4969235;28;20451;-64
2023/01/30 03:22:05;;;;;;;1.77;1.67;;;19.40;31.90;;;;;;4970590;28;21459;-64
2023/01/30 03:24:30;;;;;;;3.53;1.80;;;19.40;31.90;;;;;;4966346;28;20458;-64
2023/01/30 03:27:07;;;;;;;2.60;1.77;;;19.40;32.00;;;;;;4970929;28;20320;-64
2023/01/30 03:29:33;;;;;;;1.70;1.60;;;19.40;31.90;;;;;;4972882;28;20228;-64
2023/01/30 03:31:58;;;;;;;1.77;1.67;;;19.40;31.80;;;;;;4969282;28;20465;-64
2023/01/30 03:34:24;;;;;;;1.70;1.60;;;19.40;31.90;;;;;;4968214;28;20756;-63
2023/01/30 03:36:49;;;;;;;1.70;1.60;;;19.40;31.90;;;;;;4967919;28;20217;-64
2023/01/30 03:39:15;;;;;;;1.93;1.83;;;19.40;31.90;;;;;;4971047;28;20743;-64
2023/01/30 03:41:41;;;;;;;2.00;1.90;;;19.40;32.00;;;;;;4962249;28;20240;-64
2023/01/30 03:44:07;;;;;;;1.80;1.70;;;19.40;31.90;;;;;;4972033;28;20918;-64
2023/01/30 03:46:32;;;;;;;1.93;1.70;;;19.40;31.90;;;;;;4966059;28;20227;-64
2023/01/30 03:48:58;;;;;;;2.17;2.00;;;19.40;31.90;;;;;;4968358;28;20228;-64
2023/01/30 03:51:23;;;;;;;1.70;1.60;;;19.40;31.90;;;;;;4966408;28;20224;-64
2023/01/30 03:53:49;;;;;;;1.60;1.50;;;19.40;31.90;;;;;;4970216;28;20212;-64
2023/01/30 03:56:14;;;;;;;1.80;1.70;;;19.40;31.90;;;;;;4965608;28;20242;-65
2023/01/30 03:58:40;;;;;;;2.17;2.07;;;19.40;31.90;;;;;;4971606;28;20707;-64
2023/01/30 04:01:05;;;;;;;2.00;1.90;;;19.40;31.90;;;;;;4963032;28;20363;-64
2023/01/30 04:03:33;;;;;;;1.70;1.60;;;19.40;31.90;;;;;;4967224;28;20320;-64
2023/01/30 04:05:58;;;;;;;1.90;1.80;;;19.40;31.90;;;;;;4964622;28;20359;-64
2023/01/30 04:08:24;;;;;;;1.87;1.77;;;19.40;31.90;;;;;;4964161;28;20472;-64
2023/01/30 04:10:49;;;;;;;1.80;1.70;;;19.40;32.00;;;;;;4971510;28;20220;-64
2023/01/30 04:13:15;;;;;;;1.70;1.60;;;19.40;32.70;;;;;;4969993;28;20608;-64
2023/01/30 04:15:41;;;;;;;1.90;1.80;;;19.40;32.00;;;;;;4966281;28;20223;-64
2023/01/30 04:18:06;;;;;;;1.90;1.80;;;19.40;31.90;;;;;;4968953;28;20213;-64
2023/01/30 04:20:32;;;;;;;2.00;1.80;;;19.40;31.90;;;;;;4967160;28;20711;-64
2023/01/30 04:22:57;;;;;;;1.93;1.83;;;19.40;31.90;;;;;;4967767;28;20251;-64
2023/01/30 04:25:23;;;;;;;1.70;1.60;;;19.40;31.80;;;;;;4971153;28;20317;-62
2023/01/30 04:27:48;;;;;;;1.93;1.83;;;19.40;31.80;;;;;;4966667;28;20745;-64
2023/01/30 04:30:14;;;;;;;2.00;1.90;;;19.50;31.90;;;;;;4963197;28;20228;-64
2023/01/30 04:32:40;;;;;;;2.00;1.50;;;19.50;31.90;;;;;;4966773;28;20227;-64
2023/01/30 04:35:06;;;;;;;1.67;1.57;;;19.50;31.90;;;;;;4966527;28;20227;-64
2023/01/30 04:37:31;;;;;;;1.83;1.73;;;19.50;31.80;;;;;;4965432;28;20248;-64
2023/01/30 04:39:57;;;;;;;2.00;1.90;;;19.50;31.80;;;;;;4965501;28;20269;-64
2023/01/30 04:42:22;;;;;;;1.87;1.77;;;19.50;31.80;;;;;;4967962;28;20645;-64
2023/01/30 04:44:48;;;;;;;1.80;1.70;;;19.50;31.80;;;;;;4966682;28;20220;-64
2023/01/30 04:47:13;;;;;;;1.90;1.80;;;19.50;31.80;;;;;;4964202;28;20260;-64
2023/01/30 04:49:39;;;;;;;1.60;1.50;;;19.50;31.80;;;;;;4961184;28;20233;-64
2023/01/30 04:52:05;;;;;;;1.90;1.80;;;19.50;31.80;;;;;;4967165;28;20228;-64
2023/01/30 04:54:30;;;;;;;1.60;1.50;;;19.50;31.80;;;;;;4968589;28;20216;-64
2023/01/30 04:56:56;;;;;;;1.60;1.50;;;19.50;31.70;;;;;;4967833;28;20992;-64
2023/01/30 04:59:22;;;;;;;1.70;1.60;;;19.50;31.80;;;;;;4967905;28;20213;-64
2023/01/30 05:01:47;;;;;;;1.97;1.87;;;19.50;31.70;;;;;;4962066;28;20241;-64
2023/01/30 05:04:13;;;;;;;1.87;1.77;;;19.50;31.80;;;;;;4965535;28;20251;-64
2023/01/30 05:06:39;;;;;;;1.90;1.70;;;19.50;31.80;;;;;;4967280;28;20254;-65
2023/01/30 05:09:05;;;;;;;1.80;1.70;;;19.50;31.70;;;;;;4967402;28;20233;-66
2023/01/30 05:11:31;;;;;;;1.73;1.63;;;19.60;31.90;;;;;;4964891;28;20224;-67
2023/01/30 05:13:56;;;;;;;1.70;1.60;;;19.60;31.90;;;;;;4967905;28;20958;-65
2023/01/30 05:16:22;;;;;;;1.70;1.60;;;19.60;31.80;;;;;;4968341;28;20436;-64
2023/01/30 05:18:49;;;;;;;1.77;1.67;;;19.60;31.70;;;;;;4967471;28;20305;-63
2023/01/30 05:21:19;;;;;;;1.73;1.63;;;19.70;31.70;;;;;;4957380;28;20240;-63
2023/01/30 05:23:45;;;;;;;1.90;1.80;;;19.70;31.70;;;;;;4962024;28;20596;-63
2023/01/30 05:26:12;;;;;;;1.70;1.60;;;19.70;31.70;;;;;;4955739;28;20469;-63
2023/01/30 05:28:38;;;;;;;1.90;1.80;;;19.70;31.70;;;;;;4967047;28;20548;-63
2023/01/30 05:31:09;;;;;;;1.60;1.50;;;19.70;31.60;;;;;;4968200;28;20470;-63
2023/01/30 05:33:35;;;;;;;1.73;1.63;;;19.70;31.60;;;;;;4965510;28;20763;-63
2023/01/30 05:36:01;;;;;;;1.97;1.77;;;19.70;31.70;;;;;;4969424;28;20814;-63
2023/01/30 05:38:27;;;;;;;1.60;1.50;;;19.70;31.70;;;;;;4968545;28;20216;-63
2023/01/30 05:41:00;;;;;;;1.70;1.60;;;19.70;31.70;;;;;;4964121;28;20475;-64
2023/01/30 05:43:25;;;;;;;2.07;1.87;;;19.70;31.80;;;;;;4957237;28;21930;-63
2023/01/30 05:45:53;;;;;;;2.20;1.60;;;19.60;31.80;;;;;;4968963;28;20523;-63
2023/01/30 05:48:19;;;;;;;1.60;1.50;;;19.70;31.80;;;;;;4966421;28;20231;-63
2023/01/30 05:50:44;;;;;;;2.03;1.80;;;19.60;31.80;;;;;;4966258;28;20811;-63
2023/01/30 05:53:10;;;;;;;1.80;1.70;;;19.60;31.80;;;;;;4969086;28;20707;-63
2023/01/30 05:55:35;;;;;;;1.83;1.70;;;19.60;31.80;;;;;;4968620;28;20227;-64
2023/01/30 05:58:01;;;;;;;4.20;2.80;;;19.60;31.80;;;;;;4965445;28;20348;-63
2023/01/30 06:00:26;;;;;;;1.70;1.60;;;19.60;31.90;;;;;;4968767;28;20229;-63
2023/01/30 06:02:52;;;;;;;1.57;1.47;;;19.60;31.80;;;;;;4965159;28;20248;-63
2023/01/30 06:05:17;;;;;;;1.63;1.53;;;19.60;31.80;;;;;;4972179;28;20229;-63
2023/01/30 06:07:43;;;;;;;1.60;1.50;;;19.60;31.90;;;;;;4966948;28;20257;-63
2023/01/30 06:10:09;;;;;;;1.70;1.60;;;19.60;31.90;;;;;;4977350;28;20220;-64
2023/01/30 06:12:35;;;;;;;1.47;1.37;;;19.60;32.70;;;;;;4969868;28;20233;-62
2023/01/30 06:15:00;;;;;;;1.60;1.50;;;19.60;32.00;;;;;;4968565;28;20449;-63
2023/01/30 06:17:26;;;;;;;2.43;1.57;;;19.60;31.90;;;;;;4967468;28;20234;-63
2023/01/30 06:19:51;;;;;;;1.80;1.70;;;19.60;32.00;;;;;;4967287;28;20224;-63
2023/01/30 06:22:16;;;;;;;1.57;1.47;;;19.60;32.80;;;;;;4967933;28;20248;-63
2023/01/30 06:24:42;;;;;;;1.83;1.50;;;19.60;32.00;;;;;;4970320;28;21251;-61
2023/01/30 06:27:08;;;;;;;2.00;1.90;;;19.60;32.00;;;;;;4971898;28;20232;-62
2023/01/30 06:29:33;;;;;;;3.40;1.40;;;19.60;32.00;;;;;;4971846;28;20224;-63
2023/01/30 06:31:58;;;;;;;1.90;1.70;;;19.60;32.00;;;;;;4970227;28;20554;-62
2023/01/30 06:34:24;;;;;;;1.80;1.70;;;19.60;32.00;;;;;;4975197;28;20224;-62
2023/01/30 06:36:49;;;;;;;1.83;1.73;;;19.60;32.30;;;;;;4968257;28;20224;-63
2023/01/30 06:39:15;;;;;;;2.20;2.00;;;19.70;32.30;;;;;;4976057;28;20235;-62
2023/01/30 06:41:40;;;;;;;1.60;1.50;;;19.70;32.50;;;;;;4963886;28;20293;-62
2023/01/30 06:44:08;;;;;;;1.50;1.40;;;19.70;32.30;;;;;;4971013;28;20726;-62
2023/01/30 06:46:33;;;;;;;1.60;1.50;;;19.70;32.40;;;;;;4971550;28;20229;-62
2023/01/30 06:48:59;;;;;;;2.07;1.60;;;19.70;32.30;;;;;;4970716;28;20794;-62
2023/01/30 06:51:26;;;;;;;1.50;1.40;;;19.70;32.30;;;;;;4970164;28;22009;-62
2023/01/30 06:53:52;;;;;;;1.30;1.20;;;19.70;32.40;;;;;;4971014;28;20274;-63
2023/01/30 06:56:18;;;;;;;1.53;1.43;;;19.70;32.40;;;;;;4972214;28;20474;-63
2023/01/30 06:58:44;;;;;;;2.13;1.40;;;19.70;32.40;;;;;;4972734;28;21196;-62
2023/01/30 07:01:10;;;;;;;1.60;1.30;;;19.70;32.40;;;;;;4962821;28;20223;-63
2023/01/30 07:03:35;;;;;;;1.37;1.27;;;19.70;32.40;;;;;;4966680;28;20490;-62
2023/01/30 07:06:01;;;;;;;1.57;1.20;;;19.70;32.40;;;;;;4966560;28;20622;-63
2023/01/30 07:08:26;;;;;;;1.67;1.30;;;19.60;32.30;;;;;;4972002;28;20228;-63
2023/01/30 07:10:52;;;;;;;1.20;1.10;;;19.60;32.30;;;;;;4969365;28;21335;-63
2023/01/30 07:13:17;;;;;;;2.70;1.50;;;19.60;32.30;;;;;;4972026;28;20806;-62
2023/01/30 07:15:43;;;;;;;1.20;1.10;;;19.60;32.30;;;;;;4968061;28;20231;-63
2023/01/30 07:18:09;;;;;;;1.47;1.30;;;19.60;32.50;;;;;;4970851;28;20233;-63
2023/01/30 07:20:35;;;;;;;1.30;1.20;;;19.60;32.30;;;;;;4968513;28;20891;-63
2023/01/30 07:23:01;;;;;;;1.37;1.27;;;19.60;32.30;;;;;;4973489;28;20305;-63
2023/01/30 07:25:27;;;;;;;1.37;1.27;;;19.60;32.30;;;;;;4968732;28;20219;-62
2023/01/30 07:27:57;;;;;;;1.30;1.20;;;19.60;32.30;;;;;;4967313;28;20260;-62
2023/01/30 07:30:24;;;;;;;1.47;1.37;;;19.60;32.30;;;;;;4970974;28;20541;-63
2023/01/30 07:32:54;;;;;;;1.40;1.30;;;19.60;32.40;;;;;;4970231;28;20518;-63
2023/01/30 07:35:22;;;;;;;1.40;1.30;;;19.60;32.40;;;;;;4967278;28;20466;-63
2023/01/30 07:37:48;;;;;;;1.40;1.30;;;19.60;32.50;;;;;;4969178;28;20885;-63
2023/01/30 07:40:14;;;;;;;1.47;1.30;;;19.60;32.30;;;;;;4967515;28;20461;-63
2023/01/30 07:42:40;;;;;;;1.40;1.30;;;19.60;32.40;;;;;;4966970;28;20255;-63
2023/01/30 07:45:06;;;;;;;1.23;1.13;;;19.60;32.40;;;;;;4975458;28;20458;-63
2023/01/30 07:47:32;;;;;;;1.93;1.27;;;19.60;32.40;;;;;;4965889;28;20472;-63
2023/01/30 07:49:57;;;;;;;1.50;1.40;;;19.60;32.50;;;;;;4972421;28;20447;-63
2023/01/30 07:52:23;;;;;;;1.27;1.17;;;19.60;32.40;;;;;;4968304;28;20225;-62
2023/01/30 07:54:48;;;;;;;1.30;1.20;;;19.60;32.50;;;;;;4970247;28;20694;-64
2023/01/30 07:57:14;;;;;;;1.30;1.20;;;19.60;32.40;;;;;;4965320;28;20224;-63
2023/01/30 07:59:39;;;;;;;1.33;1.23;;;19.60;32.40;;;;;;4967571;28;21471;-62
2023/01/30 08:02:05;;;;;;;1.43;1.33;;;19.60;32.40;;;;;;4968551;28;20236;-62
2023/01/30 08:04:31;;;;;;;1.20;1.10;;;19.60;32.30;;;;;;4966169;28;20299;-62
2023/01/30 08:06:57;;;;;;;1.40;1.30;;;19.60;32.40;;;;;;4969588;28;20220;-62
2023/01/30 08:09:22;;;;;;;1.20;1.10;;;19.60;32.30;;;;;;4972982;28;20491;-62
2023/01/30 08:11:48;;;;;;;1.20;1.10;;;19.60;32.30;;;;;;4964230;28;20778;-63
2023/01/30 08:14:13;;;;;;;1.40;1.30;;;19.60;32.30;;;;;;4970799;28;20227;-63
2023/01/30 08:16:39;;;;;;;1.30;1.20;;;19.60;32.30;;;;;;4969657;28;20221;-63
2023/01/30 08:19:05;;;;;;;1.50;1.40;;;19.60;32.30;;;;;;4968086;28;20219;-63
2023/01/30 08:21:31;;;;;;;1.30;1.20;;;19.60;32.30;;;;;;4963267;28;20327;-63
2023/01/30 08:23:56;;;;;;;1.20;1.10;;;19.60;32.30;;;;;;4970781;28;20462;-63
2023/01/30 08:26:22;;;;;;;1.30;1.20;;;19.60;32.30;;;;;;4966571;28;20473;-63
2023/01/30 08:28:47;;;;;;;1.50;1.40;;;19.60;32.30;;;;;;4963166;28;20224;-63
2023/01/30 08:31:15;;;;;;;1.40;1.30;;;19.60;32.30;;;;;;4964983;28;24201;-63
2023/01/30 08:33:40;;;;;;;1.30;1.20;;;19.60;32.40;;;;;;4968610;28;20228;-62
2023/01/30 08:36:06;;;;;;;1.40;1.30;;;19.60;32.40;;;;;;4965432;28;20462;-63
2023/01/30 08:38:32;;;;;;;1.20;1.10;;;19.60;32.30;;;;;;4970535;28;20226;-63
2023/01/30 08:40:58;;;;;;;1.40;1.30;;;19.60;32.30;;;;;;4969040;28;20368;-64
2023/01/30 08:43:23;;;;;;;1.33;1.20;;;19.60;32.30;;;;;;4969742;28;20232;-62
2023/01/30 08:45:53;;;;;;;1.63;1.50;;;19.60;32.30;;;;;;4966188;28;20433;-63
2023/01/30 08:48:18;;;;;;;1.20;1.10;;;19.60;32.20;;;;;;4952255;28;20257;-63
2023/01/30 08:50:44;;;;;;;1.27;1.17;;;19.70;32.30;;;;;;4967969;28;20685;-63
2023/01/30 08:53:10;;;;;;;1.20;1.10;;;19.70;32.30;;;;;;4969581;28;20224;-62
2023/01/30 08:55:35;;;;;;;1.40;1.30;;;19.60;32.20;;;;;;4970611;28;20227;-63
2023/01/30 08:58:01;;;;;;;1.57;1.10;;;19.60;32.20;;;;;;4966864;28;20225;-62
2023/01/30 09:00:27;;;;;;;1.20;1.10;;;19.70;32.40;;;;;;4968895;28;20228;-63
2023/01/30 09:02:56;;;;;;;1.20;1.10;;;19.70;32.30;;;;;;4968343;28;20240;-63
2023/01/30 09:05:22;;;;;;;1.27;1.17;;;19.70;32.30;;;;;;4968545;28;20485;-65
2023/01/30 09:07:49;;;;;;;1.70;1.20;;;19.70;32.30;;;;;;4967240;28;20423;-66
2023/01/30 09:10:14;;;;;;;1.37;1.27;;;19.70;32.30;;;;;;4972804;28;20460;-65
2023/01/30 09:12:40;;;;;;;1.33;1.23;;;19.70;32.30;;;;;;4966405;28;20457;-66
2023/01/30 09:15:06;;;;;;;1.40;1.30;;;19.70;32.30;;;;;;4970139;28;20224;-66
2023/01/30 09:17:32;;;;;;;1.10;1.00;;;19.70;32.30;;;;;;4965678;28;20656;-66
2023/01/30 09:19:58;;;;;;;1.10;1.00;;;19.70;32.30;;;;;;4968747;28;20428;-66
2023/01/30 09:22:23;;;;;;;1.30;1.20;;;19.70;32.40;;;;;;4970241;28;20236;-66
2023/01/30 09:24:49;;;;;;;1.40;1.30;;;19.70;32.30;;;;;;4969216;28;20564;-65
2023/01/30 09:27:14;;;;;;;1.20;1.10;;;19.70;32.30;;;;;;4968125;28;20231;-65
2023/01/30 09:29:40;;;;;;;1.10;1.00;;;19.70;32.40;;;;;;4969932;28;20223;-65
2023/01/30 09:32:05;;;;;;;1.20;1.10;;;19.70;32.40;;;;;;4966963;28;20311;-66
2023/01/30 09:34:31;;;;;;;1.20;1.10;;;19.70;32.40;;;;;;4967749;28;20221;-66
2023/01/30 09:37:00;;;;;;;1.30;1.20;;;19.70;32.40;;;;;;4968774;28;20233;-65
2023/01/30 09:39:26;;;;;;;1.27;1.17;;;19.70;32.40;;;;;;4970543;28;20611;-66
2023/01/30 09:42:04;;;;;;;1.20;1.10;;;19.70;32.30;;;;;;4968746;28;20473;-66
2023/01/30 09:45:10;;;;;;;1.10;1.00;;;19.70;32.30;;;;;;4971047;28;20473;-64
2023/01/30 09:47:55;;;;;;;1.40;1.30;;;19.70;32.30;;;;;;4966863;28;20477;-63
2023/01/30 09:50:46;;;;;;;1.30;1.20;;;19.70;32.30;;;;;;4972168;28;20424;-63
2023/01/30 09:53:17;;;;;;;1.20;1.10;;;19.70;32.40;;;;;;4967628;28;20490;-63
2023/01/30 09:55:45;;;;;;;1.10;1.00;;;19.70;32.40;;;;;;4965698;28;20486;-63
2023/01/30 09:58:18;;;;;;;1.20;1.10;;;19.70;32.40;;;;;;4967593;28;20470;-63
2023/01/30 10:00:45;;;;;;;1.10;1.00;;;19.70;32.40;;;;;;4970276;28;20553;-64
2023/01/30 10:03:17;;;;;;;1.10;1.00;;;19.70;32.40;;;;;;4965029;28;20473;-63
2023/01/30 10:05:59;;;;;;;1.50;1.40;;;19.70;32.30;;;;;;4968621;28;20437;-63
2023/01/30 10:08:43;;;;;;;1.20;1.10;;;19.70;32.30;;;;;;4968788;28;20449;-64
2023/01/30 10:11:23;;;;;;;1.40;1.07;;;19.70;32.40;;;;;;4970465;28;20474;-63
2023/01/30 10:14:06;;;;;;;3.30;1.20;;;19.70;32.40;;;;;;4967374;28;20478;-62
2023/01/30 10:16:46;;;;;;;1.37;1.20;;;19.70;32.30;;;;;;4967467;28;20842;-63
2023/01/30 10:19:35;;;;;;;1.20;1.10;;;19.70;32.30;;;;;;4970215;28;21197;-62
2023/01/30 10:22:12;;;;;;;1.70;1.20;;;19.70;32.30;;;;;;4965195;28;20482;-63
2023/01/30 10:24:56;;;;;;;1.83;1.10;;;19.70;32.30;;;;;;4969402;28;20472;-63
2023/01/30 10:27:24;;;;;;;1.50;1.10;;;19.70;32.30;;;;;;4969373;28;20856;-63
2023/01/30 10:29:56;;;;;;;1.10;1.00;;;19.70;32.30;;;;;;4971222;28;20457;-63
2023/01/30 10:32:43;;;;;;;1.10;1.00;;;19.70;32.30;;;;;;4969841;28;20454;-64
2023/01/30 10:35:21;;;;;;;1.20;1.07;;;19.70;32.30;;;;;;4969147;28;20477;-63
2023/01/30 10:37:57;;;;;;;1.07;1.00;;;19.70;32.30;;;;;;4966399;28;20454;-63
2023/01/30 10:40:41;;;;;;;1.63;1.00;;;19.70;32.30;;;;;;4969225;28;20807;-63
2023/01/30 10:43:24;;;;;;;1.10;1.00;;;19.70;32.30;;;;;;4965669;28;20529;-63
2023/01/30 10:46:45;;;;;;;0.90;0.90;;;19.70;32.30;;;;;;4970237;28;20565;-63
2023/01/30 10:49:26;;;;;;;1.20;1.10;;;19.70;32.30;;;;;;4920631;28;20573;-64
2023/01/30 10:52:26;;;;;;;0.93;0.90;;;19.70;32.30;;;;;;4971067;28;20475;-63
2023/01/30 10:55:38;;;;;;;1.13;1.03;;;19.70;32.30;;;;;;4971824;28;20474;-63
2023/01/30 10:58:11;;;;;;;1.20;1.03;;;19.70;32.30;;;;;;4875799;29;20545;-63
2023/01/30 11:00:45;;;;;;;1.27;1.17;;;19.70;32.30;;;;;;4955494;28;21307;-63
2023/01/30 11:03:15;;;;;;;1.30;1.20;;;19.70;32.30;;;;;;4972580;28;20477;-63
2023/01/30 11:05:49;;;;;;;1.10;1.00;;;19.70;32.30;;;;;;4973381;28;21169;-64
2023/01/30 11:08:26;;;;;;;0.87;0.80;;;19.70;32.30;;;;;;4973978;28;20453;-63
2023/01/30 11:10:54;;;;;;;1.00;0.90;;;19.70;32.40;;;;;;4963422;28;21114;-64
2023/01/30 11:13:25;;;;;;;1.43;1.00;;;19.70;32.40;;;;;;4973758;28;20524;-63
2023/01/30 11:15:54;;;;;;;1.23;1.13;;;19.70;32.40;;;;;;4971131;28;20521;-63
2023/01/30 11:18:21;;;;;;;1.00;0.90;;;19.70;32.40;;;;;;4971691;28;20541;-65
2023/01/30 11:20:59;;;;;;;1.10;1.00;;;19.70;32.30;;;;;;4963707;28;20467;-64
2023/01/30 11:23:50;;;;;;;1.47;1.20;;;19.70;32.40;;;;;;4962571;28;20821;-62
2023/01/30 11:26:34;;;;;;;1.57;1.47;;;19.70;32.30;;;;;;4966357;28;20497;-63
2023/01/30 11:29:30;;;;;;;1.00;0.90;;;19.70;32.40;;;;;;4972243;28;21028;-62
2023/01/30 11:32:11;;;;;;;1.10;1.00;;;19.70;32.40;;;;;;4967486;28;20545;-62
2023/01/30 11:34:37;;;;;;;1.20;1.10;;;19.70;32.40;;;;;;4969121;28;21063;-63
2023/01/30 11:37:26;;;;;;;1.23;0.90;;;19.70;32.40;;;;;;4971282;28;20545;-63
2023/01/30 11:39:52;;;;;;;1.10;1.00;;;19.70;32.30;;;;;;4970950;28;20220;-63
2023/01/30 11:42:19;;;;;;;1.07;0.97;;;19.70;32.30;;;;;;4971229;28;20493;-63
2023/01/30 11:44:44;;;;;;;1.20;1.10;;;19.70;32.30;;;;;;4972268;28;21215;-63
2023/01/30 11:47:24;;;;;;;1.10;1.00;;;19.70;32.40;;;;;;4971862;28;20469;-63
2023/01/30 11:49:54;;;;;;;1.30;1.20;;;19.70;32.40;;;;;;4973939;28;20219;-63
2023/01/30 11:52:25;;;;;;;1.13;0.97;;;19.70;32.30;;;;;;4960283;28;20454;-63
2023/01/30 11:54:53;;;;;;;1.10;1.00;;;19.70;32.30;;;;;;4962989;28;20477;-63
2023/01/30 11:57:19;;;;;;;1.30;1.10;;;19.70;32.30;;;;;;4968066;28;20453;-63
2023/01/30 11:59:48;;;;;;;1.30;1.10;;;19.70;32.30;;;;;;4969941;28;20480;-63
2023/01/30 12:02:23;;;;;;;1.40;1.00;;;19.70;32.30;;;;;;4970296;28;20478;-63
2023/01/30 12:04:55;;;;;;;1.20;1.07;;;19.70;32.30;;;;;;4971845;28;20528;-63
2023/01/30 12:07:21;;;;;;;1.10;1.00;;;19.70;32.30;;;;;;4968869;28;21037;-63
2023/01/30 12:09:49;;;;;;;1.30;0.97;;;19.70;32.30;;;;;;4969869;28;20465;-63
2023/01/30 12:12:34;;;;;;;10.60;2.23;;;19.70;32.30;;;;;;4968381;28;20240;-63
2023/01/30 12:15:26;;;;;;;1.17;1.07;;;19.60;32.20;;;;;;4971032;28;20980;-63
2023/01/30 12:18:07;;;;;;;1.23;1.13;;;19.70;32.30;;;;;;4965286;28;20505;-63
2023/01/30 12:20:53;;;;;;;1.10;1.00;;;19.70;32.30;;;;;;4970656;28;20588;-63
2023/01/30 12:23:43;;;;;;;1.03;0.93;;;19.70;32.40;;;;;;4960752;28;20484;-63
2023/01/30 12:26:25;;;;;;;0.83;0.83;;;19.60;32.20;;;;;;4964046;28;20549;-63
2023/01/30 12:29:12;;;;;;;1.20;0.90;;;19.60;32.20;;;;;;4970053;28;20455;-63
2023/01/30 12:31:48;;;;;;;1.00;0.90;;;19.60;32.20;;;;;;4967564;28;20451;-63
2023/01/30 12:34:14;;;;;;;1.10;1.00;;;19.60;32.20;;;;;;4972183;28;23731;-64
2023/01/30 12:36:49;;;;;;;1.07;0.97;;;19.60;32.30;;;;;;4967671;28;20796;-63
2023/01/30 12:39:42;;;;;;;1.03;0.93;;;19.60;32.20;;;;;;4969598;28;20457;-63
2023/01/30 12:42:47;;;;;;;1.20;1.00;;;19.60;32.30;;;;;;4965809;28;20951;-63
2023/01/30 12:45:22;;;;;;;1.30;0.90;;;19.60;32.20;;;;;;4970546;28;20557;-63
2023/01/30 12:48:16;;;;;;;1.20;1.10;;;19.60;32.30;;;;;;4963467;28;20453;-64
2023/01/30 12:50:49;;;;;;;1.10;1.00;;;19.60;32.30;;;;;;4973243;28;20463;-63
2023/01/30 12:53:26;;;;;;;2.13;1.20;;;19.60;32.20;;;;;;4972389;28;20467;-64
2023/01/30 12:56:17;;;;;;;1.10;1.00;;;19.60;32.20;;;;;;4969289;28;20478;-64
2023/01/30 12:59:02;;;;;;;1.00;0.90;;;19.60;32.20;;;;;;4967236;28;20444;-64
2023/01/30 13:01:54;;;;;;;1.00;0.90;;;19.60;32.20;;;;;;4964631;28;20612;-64
2023/01/30 13:04:38;;;;;;;1.73;0.90;;;19.60;32.20;;;;;;4964093;28;20466;-63
2023/01/30 13:07:15;;;;;;;1.60;1.10;;;19.60;32.20;;;;;;4963416;28;20462;-63
2023/01/30 13:09:50;;;;;;;1.00;0.90;;;19.60;32.20;;;;;;4963264;28;20477;-63
2023/01/30 13:12:32;;;;;;;1.20;0.90;;;19.60;32.20;;;;;;4949302;28;20481;-63